createdAt,value
2022-09-23T00:01:11.143Z,100758.44
2022-09-23T00:03:42.043Z,100756.91
2022-09-23T00:06:18.899Z,100751.44
2022-09-23T00:08:46.520Z,100757.34
2022-09-23T00:11:16.586Z,100754.47
2022-09-23T00:13:44.607Z,100750.22
2022-09-23T00:16:15.584Z,100752.50
2022-09-23T00:18:43.737Z,100752.63
2022-09-23T00:21:13.301Z,100749.94
2022-09-23T00:23:43.060Z,100760.41
2022-09-23T00:26:13.409Z,100751.41
2022-09-23T00:28:42.197Z,100754.28
2022-09-23T00:31:12.629Z,100750.88
2022-09-23T00:33:40.876Z,100752.44
2022-09-23T00:36:15.810Z,100749.94
2022-09-23T00:38:45.294Z,100745.25
2022-09-23T00:41:17.813Z,100746.84
2022-09-23T00:43:46.581Z,100749.13
2022-09-23T00:46:22.596Z,100735.81
2022-09-23T00:48:56.284Z,100736.91
2022-09-23T00:51:27.597Z,100736.00
2022-09-23T00:53:54.648Z,100738.56
2022-09-23T00:56:24.359Z,100739.69
2022-09-23T00:58:52.250Z,100740.72
2022-09-23T01:01:19.817Z,100739.34
2022-09-23T01:03:47.956Z,100739.34
2022-09-23T01:06:15.087Z,100735.69
2022-09-23T01:08:45.696Z,100731.19
2022-09-23T01:11:34.335Z,100723.41
2022-09-23T01:14:19.987Z,100725.91
2022-09-23T01:16:50.954Z,100722.97
2022-09-23T01:19:45.710Z,100729.28
2022-09-23T01:22:28.407Z,100730.53
2022-09-23T01:25:32.074Z,100728.06
2022-09-23T01:28:01.690Z,100724.72
2022-09-23T01:30:44.500Z,100733.69
2022-09-23T01:33:43.921Z,100720.94
2022-09-23T01:36:27.628Z,100720.09
2022-09-23T01:39:03.939Z,100722.88
2022-09-23T01:41:55.497Z,100729.28
2022-09-23T01:44:33.480Z,100724.25
2022-09-23T01:47:11.508Z,100728.72
2022-09-23T01:50:01.733Z,100728.03
2022-09-23T01:52:32.889Z,100738.53
2022-09-23T01:55:08.839Z,100740.59
2022-09-23T01:57:43.072Z,100720.00
2022-09-23T02:00:18.641Z,100720.94
2022-09-23T02:03:05.092Z,100731.38
2022-09-23T02:05:39.742Z,100739.13
2022-09-23T02:08:14.800Z,100735.50
2022-09-23T02:10:47.298Z,100735.28
2022-09-23T02:13:28.450Z,100734.19
2022-09-23T02:16:01.272Z,100735.88
2022-09-23T02:18:42.271Z,100736.94
2022-09-23T02:21:09.942Z,100736.78
2022-09-23T02:23:43.591Z,100739.63
2022-09-23T02:26:25.711Z,100736.28
2022-09-23T02:28:59.674Z,100735.41
2022-09-23T02:32:17.954Z,100735.78
2022-09-23T02:35:21.000Z,100727.19
2022-09-23T02:38:14.015Z,100727.84
2022-09-23T02:41:00.182Z,100728.06
2022-09-23T02:43:36.474Z,100721.03
2022-09-23T02:46:05.017Z,100727.03
2022-09-23T02:48:43.622Z,100720.16
2022-09-23T02:51:11.119Z,100727.38
2022-09-23T02:53:38.430Z,100724.56
2022-09-23T02:56:22.515Z,100719.03
2022-09-23T02:58:51.981Z,100714.63
2022-09-23T03:01:48.146Z,100718.50
2022-09-23T03:04:50.295Z,100714.06
2022-09-23T03:07:33.193Z,100719.50
2022-09-23T03:10:11.983Z,100711.66
2022-09-23T03:12:38.934Z,100713.03
2022-09-23T03:15:35.648Z,100713.78
2022-09-23T03:18:18.239Z,100712.47
2022-09-23T03:21:15.163Z,100710.44
2022-09-23T03:23:50.847Z,100702.28
2022-09-23T03:26:23.468Z,100697.50
2022-09-23T03:28:51.771Z,100693.72
2022-09-23T03:31:18.995Z,100693.34
2022-09-23T03:33:54.784Z,100692.91
2022-09-23T03:36:47.848Z,100699.28
2022-09-23T03:39:33.889Z,100686.88
2022-09-23T03:42:06.857Z,100693.53
2022-09-23T03:44:39.539Z,100691.91
2022-09-23T03:47:06.589Z,100693.66
2022-09-23T03:49:37.342Z,100700.56
2022-09-23T03:52:04.404Z,100698.06
2022-09-23T03:54:32.394Z,100696.34
2022-09-23T03:56:59.975Z,100695.22
2022-09-23T03:59:28.109Z,100707.28
2022-09-23T04:01:55.718Z,100697.47
2022-09-23T04:04:22.780Z,100701.00
2022-09-23T04:06:49.744Z,100702.97
2022-09-23T04:09:17.072Z,100703.88
2022-09-23T04:11:43.992Z,100702.91
2022-09-23T04:14:12.300Z,100699.78
2022-09-23T04:16:39.525Z,100711.97
2022-09-23T04:19:11.317Z,100714.50
2022-09-23T04:21:42.518Z,100706.31
2022-09-23T04:24:10.783Z,100715.69
2022-09-23T04:26:38.897Z,100722.06
2022-09-23T04:29:06.881Z,100722.25
2022-09-23T04:31:34.587Z,100724.56
2022-09-23T04:34:01.819Z,100723.56
2022-09-23T04:36:30.461Z,100725.22
2022-09-23T04:38:57.919Z,100723.84
2022-09-23T04:41:27.288Z,100732.50
2022-09-23T04:43:54.605Z,100726.63
2022-09-23T04:46:21.628Z,100727.00
2022-09-23T04:48:48.659Z,100724.91
2022-09-23T04:51:18.461Z,100729.97
2022-09-23T04:53:48.857Z,100723.66
2022-09-23T04:56:18.881Z,100728.47
2022-09-23T04:58:46.442Z,100728.13
2022-09-23T05:01:25.411Z,100723.63
2022-09-23T05:04:17.094Z,100723.06
2022-09-23T05:07:08.134Z,100728.47
2022-09-23T05:09:35.076Z,100730.84
2022-09-23T05:12:02.302Z,100738.41
2022-09-23T05:14:29.414Z,100734.09
2022-09-23T05:16:56.550Z,100730.81
2022-09-23T05:19:23.541Z,100731.56
2022-09-23T05:21:50.678Z,100734.72
2022-09-23T05:24:17.939Z,100736.31
2022-09-23T05:26:44.874Z,100730.59
2022-09-23T05:29:12.043Z,100728.78
2022-09-23T05:31:39.045Z,100726.66
2022-09-23T05:34:06.952Z,100721.94
2022-09-23T05:36:38.628Z,100727.03
2022-09-23T05:39:08.459Z,100730.34
2022-09-23T05:41:36.823Z,100721.47
2022-09-23T05:44:04.339Z,100724.50
2022-09-23T05:46:32.330Z,100720.25
2022-09-23T05:49:02.990Z,100720.59
2022-09-23T05:51:31.820Z,100721.25
2022-09-23T05:54:00.031Z,100719.56
2022-09-23T05:56:28.927Z,100716.28
2022-09-23T05:58:58.047Z,100709.84
2022-09-23T06:01:28.465Z,100710.75
2022-09-23T06:03:57.472Z,100704.94
2022-09-23T06:06:31.793Z,100702.50
2022-09-23T06:08:59.682Z,100703.22
2022-09-23T06:11:29.978Z,100711.16
2022-09-23T06:14:04.287Z,100705.88
2022-09-23T06:16:34.868Z,100708.91
2022-09-23T06:19:06.481Z,100712.34
2022-09-23T06:21:39.548Z,100714.38
2022-09-23T06:24:07.734Z,100706.44
2022-09-23T06:26:37.947Z,100707.03
2022-09-23T06:29:08.807Z,100702.41
2022-09-23T06:31:36.112Z,100708.47
2022-09-23T06:34:10.755Z,100706.19
2022-09-23T06:36:44.004Z,100711.00
2022-09-23T06:39:12.119Z,100715.19
2022-09-23T06:41:39.484Z,100710.41
2022-09-23T06:44:12.343Z,100719.66
2022-09-23T06:46:39.432Z,100717.41
2022-09-23T06:49:06.518Z,100723.06
2022-09-23T06:51:33.965Z,100723.72
2022-09-23T06:54:02.328Z,100717.31
2022-09-23T06:56:32.414Z,100718.34
2022-09-23T06:59:01.969Z,100719.19
2022-09-23T07:01:29.013Z,100720.66
2022-09-23T07:03:56.103Z,100722.34
2022-09-23T07:06:23.146Z,100719.19
2022-09-23T07:08:51.464Z,100726.47
2022-09-23T07:11:22.660Z,100720.03
2022-09-23T07:13:49.938Z,100720.03
2022-09-23T07:16:16.965Z,100723.75
2022-09-23T07:18:45.865Z,100726.22
2022-09-23T07:21:18.557Z,100724.53
2022-09-23T07:23:47.465Z,100729.91
2022-09-23T07:26:15.871Z,100725.72
2022-09-23T07:28:43.594Z,100729.22
2022-09-23T07:31:13.739Z,100731.41
2022-09-23T07:33:44.346Z,100735.59
2022-09-23T07:36:15.184Z,100743.28
2022-09-23T07:38:45.488Z,100742.56
2022-09-23T07:41:16.183Z,100733.13
2022-09-23T07:43:44.282Z,100730.91
2022-09-23T07:46:16.634Z,100728.16
2022-09-23T07:48:44.569Z,100728.09
2022-09-23T07:51:17.261Z,100726.41
2022-09-23T07:53:47.457Z,100732.41
2022-09-23T07:56:14.559Z,100734.53
2022-09-23T07:58:41.579Z,100729.88
2022-09-23T08:01:10.464Z,100738.44
2022-09-23T08:03:37.585Z,100728.56
2022-09-23T08:06:07.388Z,100735.34
2022-09-23T08:08:34.573Z,100741.69
2022-09-23T08:11:06.198Z,100736.28
2022-09-23T08:13:34.316Z,100740.59
2022-09-23T08:16:01.574Z,100737.31
2022-09-23T08:18:28.975Z,100736.88
2022-09-23T08:20:55.972Z,100737.50
2022-09-23T08:23:23.292Z,100741.72
2022-09-23T08:25:59.712Z,100735.75
2022-09-23T08:28:27.693Z,100732.03
2022-09-23T08:30:55.415Z,100726.63
2022-09-23T08:33:23.746Z,100729.63
2022-09-23T08:35:52.356Z,100718.41
2022-09-23T08:38:20.221Z,100723.28
2022-09-23T08:40:50.749Z,100725.84
2022-09-23T08:43:32.955Z,100723.97
2022-09-23T08:46:06.746Z,100718.63
2022-09-23T08:48:38.646Z,100722.47
2022-09-23T08:51:11.554Z,100716.97
2022-09-23T08:53:39.381Z,100719.06
2022-09-23T08:56:22.879Z,100716.63
2022-09-23T08:59:07.675Z,100721.91
2022-09-23T09:01:50.229Z,100715.91
2022-09-23T09:04:47.989Z,100712.00
2022-09-23T09:07:37.819Z,100705.34
2022-09-23T09:10:19.559Z,100703.25
2022-09-23T09:13:09.155Z,100699.13
2022-09-23T09:15:47.184Z,100707.66
2022-09-23T09:18:20.066Z,100698.25
2022-09-23T09:21:10.222Z,100700.41
2022-09-23T09:23:52.854Z,100705.38
2022-09-23T09:26:26.519Z,100703.31
2022-09-23T09:29:34.232Z,100701.28
2022-09-23T09:32:16.921Z,100700.25
2022-09-23T09:34:54.841Z,100699.88
2022-09-23T09:37:33.101Z,100704.31
2022-09-23T09:40:00.533Z,100702.22
2022-09-23T09:42:37.300Z,100688.31
2022-09-23T09:45:07.545Z,100694.44
2022-09-23T09:47:59.539Z,100688.28
2022-09-23T09:50:49.579Z,100691.59
2022-09-23T09:53:19.378Z,100688.50
2022-09-23T09:55:48.510Z,100685.44
2022-09-23T09:58:17.124Z,100684.63
2022-09-23T10:00:46.113Z,100683.56
2022-09-23T10:03:13.442Z,100679.31
2022-09-23T10:05:45.975Z,100683.50
2022-09-23T10:08:19.494Z,100680.97
2022-09-23T10:10:55.065Z,100671.19
2022-09-23T10:13:27.368Z,100673.25
2022-09-23T10:15:55.202Z,100667.38
2022-09-23T10:18:37.499Z,100671.13
2022-09-23T10:21:07.960Z,100670.63
2022-09-23T10:23:40.034Z,100668.72
2022-09-23T10:26:12.277Z,100668.44
2022-09-23T10:28:55.662Z,100664.75
2022-09-23T10:31:26.201Z,100659.94
2022-09-23T10:34:01.970Z,100653.81
2022-09-23T10:36:33.654Z,100652.22
2022-09-23T10:39:22.811Z,100647.47
2022-09-23T10:42:17.153Z,100641.75
2022-09-23T10:45:15.371Z,100645.31
2022-09-23T10:48:00.699Z,100643.53
2022-09-23T10:50:49.232Z,100636.31
2022-09-23T10:53:25.242Z,100633.03
2022-09-23T10:56:07.868Z,100637.00
2022-09-23T10:58:50.812Z,100634.69
2022-09-23T11:01:39.390Z,100628.78
2022-09-23T11:04:24.525Z,100626.78
2022-09-23T11:07:07.963Z,100628.19
2022-09-23T11:10:35.214Z,100616.84
2022-09-23T11:13:35.844Z,100612.50
2022-09-23T11:16:41.800Z,100606.53
2022-09-23T11:19:36.278Z,100597.06
2022-09-23T11:22:38.544Z,100596.00
2022-09-23T11:25:28.716Z,100597.63
2022-09-23T11:28:49.885Z,100583.03
2022-09-23T11:31:59.329Z,100576.41
2022-09-23T11:34:34.282Z,100568.16
2022-09-23T11:37:09.013Z,100567.31
2022-09-23T11:39:51.565Z,100565.81
2022-09-23T11:42:26.056Z,100562.59
2022-09-23T11:45:21.947Z,100562.31
2022-09-23T11:47:58.546Z,100561.00
2022-09-23T11:51:13.245Z,100560.31
2022-09-23T11:53:59.972Z,100550.66
2022-09-23T11:56:36.140Z,100555.31
2022-09-23T11:59:13.312Z,100549.50
2022-09-23T12:01:47.167Z,100554.53
2022-09-23T12:04:29.530Z,100545.75
2022-09-23T12:07:01.701Z,100544.25
2022-09-23T12:09:57.316Z,100545.69
2022-09-23T12:12:51.784Z,100539.16
2022-09-23T12:15:34.558Z,100535.00
2022-09-23T12:18:36.026Z,100534.88
2022-09-23T12:21:33.086Z,100522.25
2022-09-23T12:24:05.934Z,100523.63
2022-09-23T12:26:33.855Z,100519.75
2022-09-23T12:29:03.630Z,100517.63
2022-09-23T12:31:33.897Z,100516.56
2022-09-23T12:34:20.055Z,100517.91
2022-09-23T12:36:47.361Z,100526.63
2022-09-23T12:39:20.795Z,100514.75
2022-09-23T12:41:51.977Z,100508.78
2022-09-23T12:44:34.695Z,100507.25
2022-09-23T12:47:25.879Z,100506.06
2022-09-23T12:49:53.551Z,100511.28
2022-09-23T12:52:20.596Z,100506.19
2022-09-23T12:54:50.163Z,100493.69
2022-09-23T12:57:35.497Z,100484.47
2022-09-23T13:00:11.775Z,100484.38
2022-09-23T13:02:38.713Z,100486.84
2022-09-23T13:05:27.164Z,100483.22
2022-09-23T13:08:06.798Z,100491.84
2022-09-23T13:10:50.131Z,100482.50
2022-09-23T13:13:36.000Z,100482.38
2022-09-23T13:16:14.910Z,100476.00
2022-09-23T13:18:55.615Z,100478.03
2022-09-23T13:21:47.656Z,100472.44
2022-09-23T13:24:23.971Z,100474.88
2022-09-23T13:27:08.607Z,100470.22
2022-09-23T13:29:50.365Z,100463.16
2022-09-23T13:32:20.609Z,100452.22
2022-09-23T13:34:58.311Z,100454.81
2022-09-23T13:37:31.522Z,100449.66
2022-09-23T13:40:19.120Z,100452.50
2022-09-23T13:42:55.215Z,100448.47
2022-09-23T13:45:24.670Z,100443.50
2022-09-23T13:47:54.767Z,100446.03
2022-09-23T13:50:23.664Z,100433.13
2022-09-23T13:52:56.885Z,100432.63
2022-09-23T13:55:39.009Z,100435.19
2022-09-23T13:58:24.523Z,100429.53
2022-09-23T14:00:52.011Z,100437.78
2022-09-23T14:03:36.267Z,100436.06
2022-09-23T14:06:14.625Z,100427.25
2022-09-23T14:08:45.278Z,100416.94
2022-09-23T14:11:18.177Z,100422.38
2022-09-23T14:13:47.352Z,100417.91
2022-09-23T14:16:16.298Z,100417.13
2022-09-23T14:18:49.319Z,100420.19
2022-09-23T14:21:37.123Z,100410.22
2022-09-23T14:24:10.464Z,100406.22
2022-09-23T14:26:39.539Z,100407.22
2022-09-23T14:29:14.022Z,100402.41
2022-09-23T14:31:42.332Z,100401.78
2022-09-23T14:34:50.515Z,100395.91
2022-09-23T14:37:57.477Z,100404.69
2022-09-23T14:40:33.709Z,100398.66
2022-09-23T14:43:15.872Z,100391.53
2022-09-23T14:45:47.564Z,100396.72
2022-09-23T14:48:23.987Z,100393.41
2022-09-23T14:51:16.070Z,100383.94
2022-09-23T14:53:48.876Z,100384.72
2022-09-23T14:56:22.866Z,100384.91
2022-09-23T14:58:57.978Z,100386.59
2022-09-23T15:01:30.700Z,100382.31
2022-09-23T15:04:16.187Z,100376.59
2022-09-23T15:06:50.876Z,100381.44
2022-09-23T15:09:23.878Z,100377.69
2022-09-23T15:11:59.417Z,100377.69
2022-09-23T15:14:38.147Z,100375.50
2022-09-23T15:17:17.574Z,100364.88
2022-09-23T15:19:45.167Z,100369.25
2022-09-23T15:22:13.272Z,100362.34
2022-09-23T15:24:45.714Z,100370.81
2022-09-23T15:27:31.329Z,100361.31
2022-09-23T15:30:22.828Z,100366.97
2022-09-23T15:32:49.995Z,100355.00
2022-09-23T15:35:19.901Z,100360.34
2022-09-23T15:37:49.467Z,100358.69
2022-09-23T15:40:23.086Z,100357.81
2022-09-23T15:42:54.049Z,100362.81
2022-09-23T15:45:48.641Z,100355.25
2022-09-23T15:48:18.471Z,100349.00
2022-09-23T15:50:48.380Z,100342.94
2022-09-23T15:53:18.489Z,100334.16
2022-09-23T15:55:45.627Z,100344.69
2022-09-23T15:58:12.555Z,100344.91
2022-09-23T16:00:39.807Z,100346.44
2022-09-23T16:03:06.962Z,100347.44
2022-09-23T16:05:37.886Z,100346.47
2022-09-23T16:08:09.310Z,100345.31
2022-09-23T16:10:37.749Z,100337.59
2022-09-23T16:13:09.010Z,100334.19
2022-09-23T16:15:36.101Z,100327.22
2022-09-23T16:18:03.118Z,100327.09
2022-09-23T16:20:30.573Z,100328.34
2022-09-23T16:23:00.723Z,100330.19
2022-09-23T16:25:30.461Z,100328.97
2022-09-23T16:27:58.593Z,100330.97
2022-09-23T16:30:27.486Z,100334.06
2022-09-23T16:32:55.506Z,100341.50
2022-09-23T16:35:24.898Z,100353.13
2022-09-23T16:37:53.018Z,100346.69
2022-09-23T16:40:23.095Z,100347.97
2022-09-23T16:42:52.454Z,100345.94
2022-09-23T16:45:23.439Z,100348.22
2022-09-23T16:47:52.162Z,100346.94
2022-09-23T16:50:22.799Z,100351.63
2022-09-23T16:52:54.892Z,100340.13
2022-09-23T16:55:27.640Z,100350.72
2022-09-23T16:57:56.382Z,100349.31
2022-09-23T17:00:43.684Z,100345.13
2022-09-23T17:03:31.462Z,100351.66
2022-09-23T17:05:58.817Z,100348.25
2022-09-23T17:08:25.983Z,100344.94
2022-09-23T17:10:58.659Z,100345.31
2022-09-23T17:13:29.651Z,100347.56
2022-09-23T17:15:57.007Z,100351.22
2022-09-23T17:18:24.022Z,100342.53
2022-09-23T17:20:59.401Z,100348.41
2022-09-23T17:23:27.127Z,100349.81
2022-09-23T17:25:54.544Z,100339.47
2022-09-23T17:28:22.213Z,100338.88
2022-09-23T17:30:55.072Z,100347.38
2022-09-23T17:33:22.512Z,100347.00
2022-09-23T17:35:49.539Z,100347.84
2022-09-23T17:38:16.544Z,100352.66
2022-09-23T17:40:50.855Z,100364.50
2022-09-23T17:43:25.188Z,100364.47
2022-09-23T17:45:54.643Z,100366.59
2022-09-23T17:48:26.378Z,100366.06
2022-09-23T17:50:58.055Z,100363.94
2022-09-23T17:53:26.287Z,100360.44
2022-09-23T17:55:57.933Z,100360.19
2022-09-23T17:58:30.098Z,100372.31
2022-09-23T18:00:57.550Z,100371.94
2022-09-23T18:03:25.892Z,100372.06
2022-09-23T18:05:52.970Z,100380.53
2022-09-23T18:08:20.569Z,100378.34
2022-09-23T18:10:47.584Z,100391.97
2022-09-23T18:13:14.559Z,100395.50
2022-09-23T18:15:41.665Z,100389.00
2022-09-23T18:18:08.603Z,100396.59
2022-09-23T18:20:35.685Z,100392.47
2022-09-23T18:23:02.690Z,100392.59
2022-09-23T18:25:39.205Z,100398.22
2022-09-23T18:28:06.749Z,100389.63
2022-09-23T18:30:33.746Z,100394.22
2022-09-23T18:33:01.722Z,100402.81
2022-09-23T18:35:28.883Z,100400.75
2022-09-23T18:37:56.323Z,100404.63
2022-09-23T18:40:23.309Z,100405.69
2022-09-23T18:42:50.622Z,100400.59
2022-09-23T18:45:17.566Z,100400.97
2022-09-23T18:48:02.979Z,100400.75
2022-09-23T18:50:43.365Z,100401.97
2022-09-23T18:53:10.988Z,100403.41
2022-09-23T18:55:37.940Z,100397.34
2022-09-23T18:58:07.510Z,100404.22
2022-09-23T19:00:35.304Z,100399.66
2022-09-23T19:03:02.481Z,100401.19
2022-09-23T19:05:29.558Z,100398.03
2022-09-23T19:07:56.649Z,100397.81
2022-09-23T19:10:23.631Z,100397.81
2022-09-23T19:12:50.572Z,100388.66
2022-09-23T19:15:17.654Z,100392.91
2022-09-23T19:17:44.624Z,100389.56
2022-09-23T19:20:12.710Z,100392.88
2022-09-23T19:22:40.117Z,100391.66
2022-09-23T19:25:08.529Z,100390.59
2022-09-23T19:27:35.979Z,100392.88
2022-09-23T19:30:04.276Z,100396.16
2022-09-23T19:32:33.473Z,100393.06
2022-09-23T19:35:01.227Z,100392.47
2022-09-23T19:37:28.459Z,100386.63
2022-09-23T19:39:55.443Z,100383.09
2022-09-23T19:42:23.288Z,100387.00
2022-09-23T19:44:50.437Z,100402.00
2022-09-23T19:47:17.521Z,100392.41
2022-09-23T19:49:44.791Z,100394.06
2022-09-23T19:52:11.737Z,100397.81
2022-09-23T19:54:38.765Z,100395.09
2022-09-23T19:57:05.880Z,100396.75
2022-09-23T19:59:32.998Z,100392.63
2022-09-23T20:02:00.129Z,100394.13
2022-09-23T20:04:27.155Z,100381.50
2022-09-23T20:06:54.199Z,100393.44
2022-09-23T20:09:21.344Z,100386.38
2022-09-23T20:11:48.357Z,100389.59
2022-09-23T20:14:15.352Z,100389.09
2022-09-23T20:16:42.497Z,100386.59
2022-09-23T20:19:09.966Z,100385.38
2022-09-23T20:21:36.974Z,100383.53
2022-09-23T20:24:05.877Z,100387.31
2022-09-23T20:26:52.168Z,100379.41
2022-09-23T20:29:19.251Z,100377.38
2022-09-23T20:31:46.317Z,100381.50
2022-09-23T20:34:13.374Z,100386.16
2022-09-23T20:36:41.787Z,100390.13
2022-09-23T20:39:10.345Z,100389.31
2022-09-23T20:41:39.496Z,100390.69
2022-09-23T20:44:12.923Z,100388.69
2022-09-23T20:46:47.755Z,100386.16
2022-09-23T20:49:16.209Z,100391.09
2022-09-23T20:51:44.746Z,100389.25
2022-09-23T20:54:12.462Z,100386.53
2022-09-23T20:56:39.686Z,100389.81
2022-09-23T20:59:06.885Z,100390.50
2022-09-23T21:01:35.645Z,100386.06
2022-09-23T21:04:08.093Z,100393.88
2022-09-23T21:06:36.745Z,100394.81
2022-09-23T21:09:07.988Z,100395.22
2022-09-23T21:11:34.956Z,100387.25
2022-09-23T21:14:02.667Z,100397.69
2022-09-23T21:16:30.428Z,100401.81
2022-09-23T21:18:58.492Z,100395.88
2022-09-23T21:21:26.254Z,100389.97
2022-09-23T21:23:53.288Z,100391.47
2022-09-23T21:26:24.898Z,100394.78
2022-09-23T21:28:57.931Z,100395.88
2022-09-23T21:31:32.285Z,100387.63
2022-09-23T21:34:00.605Z,100391.34
2022-09-23T21:36:33.162Z,100389.09
2022-09-23T21:39:04.461Z,100394.50
2022-09-23T21:41:32.116Z,100387.22
2022-09-23T21:44:00.389Z,100396.00
2022-09-23T21:46:28.420Z,100388.22
2022-09-23T21:48:57.609Z,100384.97
2022-09-23T21:51:27.531Z,100388.72
2022-09-23T21:53:56.951Z,100380.66
2022-09-23T21:56:26.082Z,100381.09
2022-09-23T21:58:54.735Z,100386.94
2022-09-23T22:01:27.290Z,100389.69
2022-09-23T22:03:56.890Z,100383.13
2022-09-23T22:06:28.553Z,100382.53
2022-09-23T22:09:01.381Z,100378.44
2022-09-23T22:11:51.074Z,100379.50
2022-09-23T22:14:23.494Z,100382.19
2022-09-23T22:16:50.606Z,100384.88
2022-09-23T22:19:17.963Z,100384.06
2022-09-23T22:21:45.840Z,100390.69
2022-09-23T22:24:13.328Z,100392.34
2022-09-23T22:26:42.600Z,100390.50
2022-09-23T22:29:31.317Z,100401.66
2022-09-23T22:32:18.349Z,100391.13
2022-09-23T22:34:50.937Z,100390.94
2022-09-23T22:37:21.593Z,100389.06
2022-09-23T22:39:48.599Z,100387.22
2022-09-23T22:42:16.227Z,100385.16
2022-09-23T22:44:43.522Z,100384.94
2022-09-23T22:47:10.998Z,100388.06
2022-09-23T22:49:38.022Z,100385.34
2022-09-23T22:52:11.391Z,100381.22
2022-09-23T22:54:40.301Z,100385.78
2022-09-23T22:57:08.381Z,100390.94
2022-09-23T22:59:36.072Z,100382.69
2022-09-23T23:02:03.711Z,100390.97
2022-09-23T23:04:31.132Z,100387.00
2022-09-23T23:06:59.106Z,100387.22
2022-09-23T23:09:26.452Z,100394.44
2022-09-23T23:11:53.521Z,100388.19
2022-09-23T23:14:20.826Z,100382.69
2022-09-23T23:16:47.882Z,100378.94
2022-09-23T23:19:17.363Z,100382.69
2022-09-23T23:21:45.660Z,100388.66
2022-09-23T23:24:18.179Z,100377.69
2022-09-23T23:26:45.747Z,100383.47
2022-09-23T23:29:14.400Z,100376.22
2022-09-23T23:31:45.525Z,100379.31
2022-09-23T23:34:15.342Z,100378.91
2022-09-23T23:36:43.687Z,100374.75
2022-09-23T23:39:11.240Z,100372.06
2022-09-23T23:41:41.831Z,100379.50
2022-09-23T23:44:09.080Z,100372.88
2022-09-23T23:46:37.554Z,100373.69
2022-09-23T23:49:05.150Z,100368.94
2022-09-23T23:51:32.212Z,100369.13
2022-09-23T23:54:00.297Z,100370.75
2022-09-23T23:56:30.901Z,100371.97
2022-09-23T23:59:00.966Z,100373.84
